sensor_id;sensor_type;location;lat;lon;timestamp;temperature;humidity
8994;DHT22;4532;50.886;4.700;2023-05-07T00:00:07;19.00;99.90
8994;DHT22;4532;50.886;4.700;2023-05-07T00:02:35;19.00;99.90
8994;DHT22;4532;50.886;4.700;2023-05-07T00:05:09;19.00;99.90
8994;DHT22;4532;50.886;4.700;2023-05-07T00:07:39;19.00;99.90
8994;DHT22;4532;50.886;4.700;2023-05-07T00:10:07;19.00;99.90
8994;DHT22;4532;50.886;4.700;2023-05-07T00:12:40;19.00;99.90
8994;DHT22;4532;50.886;4.700;2023-05-07T00:15:10;19.00;99.90
8994;DHT22;4532;50.886;4.700;2023-05-07T00:17:40;19.00;99.90
8994;DHT22;4532;50.886;4.700;2023-05-07T00:20:13;19.00;99.90
8994;DHT22;4532;50.886;4.700;2023-05-07T00:22:40;19.00;99.90
8994;DHT22;4532;50.886;4.700;2023-05-07T00:25:09;19.00;99.90
8994;DHT22;4532;50.886;4.700;2023-05-07T00:27:39;19.00;99.90
8994;DHT22;4532;50.886;4.700;2023-05-07T00:30:08;19.00;99.90
8994;DHT22;4532;50.886;4.700;2023-05-07T00:32:38;19.00;99.90
8994;DHT22;4532;50.886;4.700;2023-05-07T00:35:11;19.00;99.90
8994;DHT22;4532;50.886;4.700;2023-05-07T00:37:38;19.00;99.90
8994;DHT22;4532;50.886;4.700;2023-05-07T00:40:06;19.00;99.90
8994;DHT22;4532;50.886;4.700;2023-05-07T00:42:39;19.00;99.90
8994;DHT22;4532;50.886;4.700;2023-05-07T00:45:07;19.00;99.90
8994;DHT22;4532;50.886;4.700;2023-05-07T00:47:37;19.00;99.90
8994;DHT22;4532;50.886;4.700;2023-05-07T00:50:07;19.00;99.90
8994;DHT22;4532;50.886;4.700;2023-05-07T00:52:36;19.00;99.90
8994;DHT22;4532;50.886;4.700;2023-05-07T00:55:07;19.00;99.90
8994;DHT22;4532;50.886;4.700;2023-05-07T00:57:39;19.00;99.90
8994;DHT22;4532;50.886;4.700;2023-05-07T01:00:09;18.90;99.90
8994;DHT22;4532;50.886;4.700;2023-05-07T01:02:44;18.90;99.90
8994;DHT22;4532;50.886;4.700;2023-05-07T01:05:14;18.90;99.90
8994;DHT22;4532;50.886;4.700;2023-05-07T01:07:44;18.90;99.90
8994;DHT22;4532;50.886;4.700;2023-05-07T01:10:12;18.90;99.90
8994;DHT22;4532;50.886;4.700;2023-05-07T01:12:40;18.90;99.90
8994;DHT22;4532;50.886;4.700;2023-05-07T01:15:13;18.90;99.90
8994;DHT22;4532;50.886;4.700;2023-05-07T01:17:42;18.90;99.90
8994;DHT22;4532;50.886;4.700;2023-05-07T01:20:14;18.90;99.90
8994;DHT22;4532;50.886;4.700;2023-05-07T01:22:45;18.90;99.90
8994;DHT22;4532;50.886;4.700;2023-05-07T01:25:17;18.90;99.90
8994;DHT22;4532;50.886;4.700;2023-05-07T01:27:45;18.90;99.90
8994;DHT22;4532;50.886;4.700;2023-05-07T01:30:15;18.90;99.90
8994;DHT22;4532;50.886;4.700;2023-05-07T01:32:50;18.90;99.90
8994;DHT22;4532;50.886;4.700;2023-05-07T01:35:27;18.90;99.90
8994;DHT22;4532;50.886;4.700;2023-05-07T01:37:58;18.90;99.90
8994;DHT22;4532;50.886;4.700;2023-05-07T01:40:28;18.90;99.90
8994;DHT22;4532;50.886;4.700;2023-05-07T01:42:55;18.80;99.90
8994;DHT22;4532;50.886;4.700;2023-05-07T01:45:23;18.80;99.90
8994;DHT22;4532;50.886;4.700;2023-05-07T01:47:56;18.80;99.90
8994;DHT22;4532;50.886;4.700;2023-05-07T01:50:27;18.90;99.90
8994;DHT22;4532;50.886;4.700;2023-05-07T01:52:57;18.80;99.90
8994;DHT22;4532;50.886;4.700;2023-05-07T01:55:26;18.90;99.90
8994;DHT22;4532;50.886;4.700;2023-05-07T01:57:56;18.90;99.90
8994;DHT22;4532;50.886;4.700;2023-05-07T02:00:23;18.80;99.90
8994;DHT22;4532;50.886;4.700;2023-05-07T02:02:53;18.80;99.90
8994;DHT22;4532;50.886;4.700;2023-05-07T02:05:20;18.80;99.90
8994;DHT22;4532;50.886;4.700;2023-05-07T02:07:53;18.80;99.90
8994;DHT22;4532;50.886;4.700;2023-05-07T02:10:21;18.80;99.90
8994;DHT22;4532;50.886;4.700;2023-05-07T02:12:48;18.80;99.90
8994;DHT22;4532;50.886;4.700;2023-05-07T02:15:15;18.90;99.90
8994;DHT22;4532;50.886;4.700;2023-05-07T02:18:02;18.90;99.90
8994;DHT22;4532;50.886;4.700;2023-05-07T02:20:30;18.90;99.90
8994;DHT22;4532;50.886;4.700;2023-05-07T02:22:57;18.90;99.90
8994;DHT22;4532;50.886;4.700;2023-05-07T02:25:24;18.90;99.90
8994;DHT22;4532;50.886;4.700;2023-05-07T02:27:54;18.80;99.90
8994;DHT22;4532;50.886;4.700;2023-05-07T02:30:21;18.80;99.90
8994;DHT22;4532;50.886;4.700;2023-05-07T02:32:48;18.80;99.90
8994;DHT22;4532;50.886;4.700;2023-05-07T02:35:18;18.80;99.90
8994;DHT22;4532;50.886;4.700;2023-05-07T02:37:48;18.80;99.90
8994;DHT22;4532;50.886;4.700;2023-05-07T02:40:15;18.80;99.90
8994;DHT22;4532;50.886;4.700;2023-05-07T02:42:42;18.80;99.90
8994;DHT22;4532;50.886;4.700;2023-05-07T02:45:14;18.80;99.90
8994;DHT22;4532;50.886;4.700;2023-05-07T02:47:41;18.80;99.90
8994;DHT22;4532;50.886;4.700;2023-05-07T02:50:08;18.80;99.90
8994;DHT22;4532;50.886;4.700;2023-05-07T02:52:36;18.80;99.90
8994;DHT22;4532;50.886;4.700;2023-05-07T02:55:03;18.80;99.90
8994;DHT22;4532;50.886;4.700;2023-05-07T02:57:31;18.80;99.90
8994;DHT22;4532;50.886;4.700;2023-05-07T03:00:06;18.80;99.90
8994;DHT22;4532;50.886;4.700;2023-05-07T03:02:39;18.80;99.90
8994;DHT22;4532;50.886;4.700;2023-05-07T03:05:06;18.80;99.90
8994;DHT22;4532;50.886;4.700;2023-05-07T03:07:36;18.80;99.90
8994;DHT22;4532;50.886;4.700;2023-05-07T03:10:06;18.80;99.90
8994;DHT22;4532;50.886;4.700;2023-05-07T03:12:36;18.70;99.90
8994;DHT22;4532;50.886;4.700;2023-05-07T03:15:03;18.70;99.90
8994;DHT22;4532;50.886;4.700;2023-05-07T03:17:33;18.70;99.90
8994;DHT22;4532;50.886;4.700;2023-05-07T03:20:00;18.70;99.90
8994;DHT22;4532;50.886;4.700;2023-05-07T03:22:29;18.70;99.90
8994;DHT22;4532;50.886;4.700;2023-05-07T03:24:59;18.70;99.90
8994;DHT22;4532;50.886;4.700;2023-05-07T03:27:26;18.70;99.90
8994;DHT22;4532;50.886;4.700;2023-05-07T03:29:56;18.70;99.90
8994;DHT22;4532;50.886;4.700;2023-05-07T03:32:25;18.70;99.90
8994;DHT22;4532;50.886;4.700;2023-05-07T03:34:52;18.70;99.90
8994;DHT22;4532;50.886;4.700;2023-05-07T03:37:20;18.70;99.90
8994;DHT22;4532;50.886;4.700;2023-05-07T03:39:50;18.70;99.90
8994;DHT22;4532;50.886;4.700;2023-05-07T03:42:20;18.70;99.90
8994;DHT22;4532;50.886;4.700;2023-05-07T03:44:49;18.70;99.90
8994;DHT22;4532;50.886;4.700;2023-05-07T03:47:21;18.70;99.90
8994;DHT22;4532;50.886;4.700;2023-05-07T03:49:48;18.70;99.90
8994;DHT22;4532;50.886;4.700;2023-05-07T03:52:17;18.80;99.90
8994;DHT22;4532;50.886;4.700;2023-05-07T03:54:54;18.70;99.90
8994;DHT22;4532;50.886;4.700;2023-05-07T03:57:26;18.70;99.90
8994;DHT22;4532;50.886;4.700;2023-05-07T03:59:56;18.70;99.90
8994;DHT22;4532;50.886;4.700;2023-05-07T04:02:26;18.70;99.90
8994;DHT22;4532;50.886;4.700;2023-05-07T04:04:55;18.70;99.90
8994;DHT22;4532;50.886;4.700;2023-05-07T04:07:25;18.70;99.90
8994;DHT22;4532;50.886;4.700;2023-05-07T04:09:52;18.70;99.90
8994;DHT22;4532;50.886;4.700;2023-05-07T04:12:21;18.60;99.90
8994;DHT22;4532;50.886;4.700;2023-05-07T04:14:53;18.60;99.90
8994;DHT22;4532;50.886;4.700;2023-05-07T04:17:24;18.60;99.90
8994;DHT22;4532;50.886;4.700;2023-05-07T04:19:54;18.60;99.90
8994;DHT22;4532;50.886;4.700;2023-05-07T04:22:24;18.60;99.90
8994;DHT22;4532;50.886;4.700;2023-05-07T04:24:54;18.60;99.90
8994;DHT22;4532;50.886;4.700;2023-05-07T04:27:21;18.50;99.90
8994;DHT22;4532;50.886;4.700;2023-05-07T04:29:53;18.50;99.90
8994;DHT22;4532;50.886;4.700;2023-05-07T04:32:23;18.60;99.90
8994;DHT22;4532;50.886;4.700;2023-05-07T04:34:52;18.50;99.90
8994;DHT22;4532;50.886;4.700;2023-05-07T04:37:21;18.50;99.90
8994;DHT22;4532;50.886;4.700;2023-05-07T04:39:48;18.50;99.90
8994;DHT22;4532;50.886;4.700;2023-05-07T04:42:18;18.50;99.90
8994;DHT22;4532;50.886;4.700;2023-05-07T04:44:45;18.50;99.90
8994;DHT22;4532;50.886;4.700;2023-05-07T04:47:13;18.50;99.90
8994;DHT22;4532;50.886;4.700;2023-05-07T04:49:40;18.50;99.90
8994;DHT22;4532;50.886;4.700;2023-05-07T04:52:07;18.50;99.90
8994;DHT22;4532;50.886;4.700;2023-05-07T04:54:36;18.50;99.90
8994;DHT22;4532;50.886;4.700;2023-05-07T04:57:04;18.50;99.90
8994;DHT22;4532;50.886;4.700;2023-05-07T04:59:32;18.50;99.90
8994;DHT22;4532;50.886;4.700;2023-05-07T05:01:59;18.50;99.90
8994;DHT22;4532;50.886;4.700;2023-05-07T05:04:30;18.50;99.90
8994;DHT22;4532;50.886;4.700;2023-05-07T05:06:57;18.50;99.90
8994;DHT22;4532;50.886;4.700;2023-05-07T05:09:25;18.60;99.90
8994;DHT22;4532;50.886;4.700;2023-05-07T05:11:54;18.60;99.90
8994;DHT22;4532;50.886;4.700;2023-05-07T05:14:24;18.60;99.90
8994;DHT22;4532;50.886;4.700;2023-05-07T05:16:51;18.60;99.90
8994;DHT22;4532;50.886;4.700;2023-05-07T05:19:21;18.60;99.90
8994;DHT22;4532;50.886;4.700;2023-05-07T05:21:48;18.70;99.90
8994;DHT22;4532;50.886;4.700;2023-05-07T05:24:17;18.70;99.90
8994;DHT22;4532;50.886;4.700;2023-05-07T05:26:44;18.70;99.90
8994;DHT22;4532;50.886;4.700;2023-05-07T05:29:14;18.70;99.90
8994;DHT22;4532;50.886;4.700;2023-05-07T05:31:44;18.70;99.90
8994;DHT22;4532;50.886;4.700;2023-05-07T05:34:11;18.70;99.90
8994;DHT22;4532;50.886;4.700;2023-05-07T05:36:43;18.70;99.90
8994;DHT22;4532;50.886;4.700;2023-05-07T05:39:13;18.70;99.90
8994;DHT22;4532;50.886;4.700;2023-05-07T05:41:44;18.70;99.90
8994;DHT22;4532;50.886;4.700;2023-05-07T05:44:12;18.80;99.90
8994;DHT22;4532;50.886;4.700;2023-05-07T05:46:42;18.80;99.90
8994;DHT22;4532;50.886;4.700;2023-05-07T05:49:09;18.80;99.90
8994;DHT22;4532;50.886;4.700;2023-05-07T05:51:39;18.80;99.90
8994;DHT22;4532;50.886;4.700;2023-05-07T05:54:11;18.90;99.90
8994;DHT22;4532;50.886;4.700;2023-05-07T05:56:41;18.90;99.90
8994;DHT22;4532;50.886;4.700;2023-05-07T05:59:12;18.90;99.90
8994;DHT22;4532;50.886;4.700;2023-05-07T06:01:40;18.90;99.90
8994;DHT22;4532;50.886;4.700;2023-05-07T06:04:07;18.90;99.90
8994;DHT22;4532;50.886;4.700;2023-05-07T06:06:34;19.00;99.90
8994;DHT22;4532;50.886;4.700;2023-05-07T06:09:01;19.00;99.90
8994;DHT22;4532;50.886;4.700;2023-05-07T06:11:29;19.00;99.90
8994;DHT22;4532;50.886;4.700;2023-05-07T06:13:56;19.00;99.90
8994;DHT22;4532;50.886;4.700;2023-05-07T06:16:24;19.00;99.90
8994;DHT22;4532;50.886;4.700;2023-05-07T06:18:51;19.00;99.90
8994;DHT22;4532;50.886;4.700;2023-05-07T06:21:21;19.00;99.90
8994;DHT22;4532;50.886;4.700;2023-05-07T06:23:48;19.10;99.90
8994;DHT22;4532;50.886;4.700;2023-05-07T06:26:15;19.10;99.90
8994;DHT22;4532;50.886;4.700;2023-05-07T06:28:43;19.10;99.90
8994;DHT22;4532;50.886;4.700;2023-05-07T06:31:16;19.10;99.90
8994;DHT22;4532;50.886;4.700;2023-05-07T06:33:44;19.10;99.90
8994;DHT22;4532;50.886;4.700;2023-05-07T06:36:12;19.20;99.90
8994;DHT22;4532;50.886;4.700;2023-05-07T06:38:44;19.20;99.90
8994;DHT22;4532;50.886;4.700;2023-05-07T06:41:14;19.30;99.90
8994;DHT22;4532;50.886;4.700;2023-05-07T06:43:43;19.30;99.90
8994;DHT22;4532;50.886;4.700;2023-05-07T06:46:11;19.30;99.90
8994;DHT22;4532;50.886;4.700;2023-05-07T06:48:40;19.30;99.90
8994;DHT22;4532;50.886;4.700;2023-05-07T06:51:07;19.30;99.90
8994;DHT22;4532;50.886;4.700;2023-05-07T06:53:36;19.30;99.90
8994;DHT22;4532;50.886;4.700;2023-05-07T06:56:06;19.30;99.90
8994;DHT22;4532;50.886;4.700;2023-05-07T06:58:37;19.30;99.90
8994;DHT22;4532;50.886;4.700;2023-05-07T07:01:06;19.20;99.90
8994;DHT22;4532;50.886;4.700;2023-05-07T07:03:34;19.20;99.90
8994;DHT22;4532;50.886;4.700;2023-05-07T07:06:03;19.20;99.90
8994;DHT22;4532;50.886;4.700;2023-05-07T07:08:33;19.20;99.90
8994;DHT22;4532;50.886;4.700;2023-05-07T07:11:01;19.20;99.90
8994;DHT22;4532;50.886;4.700;2023-05-07T07:13:31;19.20;99.90
8994;DHT22;4532;50.886;4.700;2023-05-07T07:16:00;19.30;99.90
8994;DHT22;4532;50.886;4.700;2023-05-07T07:18:28;19.30;99.90
8994;DHT22;4532;50.886;4.700;2023-05-07T07:20:57;19.30;99.90
8994;DHT22;4532;50.886;4.700;2023-05-07T07:23:25;19.30;99.90
8994;DHT22;4532;50.886;4.700;2023-05-07T07:25:56;19.30;99.90
8994;DHT22;4532;50.886;4.700;2023-05-07T07:28:26;19.40;99.90
8994;DHT22;4532;50.886;4.700;2023-05-07T07:30:53;19.40;99.90
8994;DHT22;4532;50.886;4.700;2023-05-07T07:33:20;19.50;99.90
8994;DHT22;4532;50.886;4.700;2023-05-07T07:35:47;19.50;99.90
8994;DHT22;4532;50.886;4.700;2023-05-07T07:38:17;19.60;99.90
8994;DHT22;4532;50.886;4.700;2023-05-07T07:40:44;19.60;99.90
8994;DHT22;4532;50.886;4.700;2023-05-07T07:43:13;19.60;99.90
8994;DHT22;4532;50.886;4.700;2023-05-07T07:45:41;19.70;99.90
8994;DHT22;4532;50.886;4.700;2023-05-07T07:48:08;19.70;99.90
8994;DHT22;4532;50.886;4.700;2023-05-07T07:50:38;19.80;99.90
8994;DHT22;4532;50.886;4.700;2023-05-07T07:53:14;19.80;99.90
8994;DHT22;4532;50.886;4.700;2023-05-07T07:55:44;19.90;99.90
8994;DHT22;4532;50.886;4.700;2023-05-07T07:58:11;19.90;99.90
8994;DHT22;4532;50.886;4.700;2023-05-07T08:00:43;20.00;99.90
8994;DHT22;4532;50.886;4.700;2023-05-07T08:03:10;20.00;99.90
8994;DHT22;4532;50.886;4.700;2023-05-07T08:05:38;20.10;99.90
8994;DHT22;4532;50.886;4.700;2023-05-07T08:08:12;20.10;99.90
8994;DHT22;4532;50.886;4.700;2023-05-07T08:10:42;20.20;99.90
8994;DHT22;4532;50.886;4.700;2023-05-07T08:13:09;20.20;99.90
8994;DHT22;4532;50.886;4.700;2023-05-07T08:15:39;20.20;99.90
8994;DHT22;4532;50.886;4.700;2023-05-07T08:18:08;20.20;99.90
8994;DHT22;4532;50.886;4.700;2023-05-07T08:20:36;20.20;99.90
8994;DHT22;4532;50.886;4.700;2023-05-07T08:23:08;20.20;99.90
8994;DHT22;4532;50.886;4.700;2023-05-07T08:25:36;20.20;99.90
8994;DHT22;4532;50.886;4.700;2023-05-07T08:28:04;20.20;99.90
8994;DHT22;4532;50.886;4.700;2023-05-07T08:30:38;20.20;99.90
8994;DHT22;4532;50.886;4.700;2023-05-07T08:33:12;20.20;99.90
8994;DHT22;4532;50.886;4.700;2023-05-07T08:35:40;20.20;99.90
8994;DHT22;4532;50.886;4.700;2023-05-07T08:38:09;20.30;99.90
8994;DHT22;4532;50.886;4.700;2023-05-07T08:40:39;20.30;99.90
8994;DHT22;4532;50.886;4.700;2023-05-07T08:43:12;20.30;99.90
8994;DHT22;4532;50.886;4.700;2023-05-07T08:45:40;20.30;99.90
8994;DHT22;4532;50.886;4.700;2023-05-07T08:48:19;20.40;99.90
8994;DHT22;4532;50.886;4.700;2023-05-07T08:50:50;20.40;99.90
8994;DHT22;4532;50.886;4.700;2023-05-07T08:53:18;20.40;99.90
8994;DHT22;4532;50.886;4.700;2023-05-07T08:55:52;20.50;99.90
8994;DHT22;4532;50.886;4.700;2023-05-07T08:58:24;20.50;99.90
8994;DHT22;4532;50.886;4.700;2023-05-07T09:00:53;20.50;99.90
8994;DHT22;4532;50.886;4.700;2023-05-07T09:03:20;20.50;99.90
8994;DHT22;4532;50.886;4.700;2023-05-07T09:05:50;20.50;99.90
8994;DHT22;4532;50.886;4.700;2023-05-07T09:08:18;20.50;99.90
8994;DHT22;4532;50.886;4.700;2023-05-07T09:10:45;20.40;99.90
8994;DHT22;4532;50.886;4.700;2023-05-07T09:13:14;20.40;99.90
8994;DHT22;4532;50.886;4.700;2023-05-07T09:15:41;20.40;99.90
8994;DHT22;4532;50.886;4.700;2023-05-07T09:18:14;20.40;99.90
8994;DHT22;4532;50.886;4.700;2023-05-07T09:20:46;20.40;99.90
8994;DHT22;4532;50.886;4.700;2023-05-07T09:23:14;20.40;99.90
8994;DHT22;4532;50.886;4.700;2023-05-07T09:25:45;20.40;99.90
8994;DHT22;4532;50.886;4.700;2023-05-07T09:28:17;20.40;99.90
8994;DHT22;4532;50.886;4.700;2023-05-07T09:30:44;20.40;99.90
8994;DHT22;4532;50.886;4.700;2023-05-07T09:33:14;20.40;99.90
8994;DHT22;4532;50.886;4.700;2023-05-07T09:35:43;20.40;99.90
8994;DHT22;4532;50.886;4.700;2023-05-07T09:38:10;20.50;99.90
8994;DHT22;4532;50.886;4.700;2023-05-07T09:40:40;20.50;99.90
8994;DHT22;4532;50.886;4.700;2023-05-07T09:43:13;20.50;99.90
8994;DHT22;4532;50.886;4.700;2023-05-07T09:45:43;20.60;99.90
8994;DHT22;4532;50.886;4.700;2023-05-07T09:48:10;20.60;99.90
8994;DHT22;4532;50.886;4.700;2023-05-07T09:50:48;20.60;99.90
8994;DHT22;4532;50.886;4.700;2023-05-07T09:53:17;20.60;99.90
8994;DHT22;4532;50.886;4.700;2023-05-07T09:55:49;20.60;99.90
8994;DHT22;4532;50.886;4.700;2023-05-07T09:58:21;20.60;99.90
8994;DHT22;4532;50.886;4.700;2023-05-07T10:00:54;20.60;99.90
8994;DHT22;4532;50.886;4.700;2023-05-07T10:03:24;20.60;99.90
8994;DHT22;4532;50.886;4.700;2023-05-07T10:06:00;20.60;99.90
8994;DHT22;4532;50.886;4.700;2023-05-07T10:08:31;20.60;99.90
8994;DHT22;4532;50.886;4.700;2023-05-07T10:11:01;20.60;99.90
8994;DHT22;4532;50.886;4.700;2023-05-07T10:13:28;20.60;99.90
8994;DHT22;4532;50.886;4.700;2023-05-07T10:15:56;20.60;99.90
8994;DHT22;4532;50.886;4.700;2023-05-07T10:18:30;20.60;99.90
8994;DHT22;4532;50.886;4.700;2023-05-07T10:21:39;20.70;99.90
8994;DHT22;4532;50.886;4.700;2023-05-07T10:24:09;20.70;99.90
8994;DHT22;4532;50.886;4.700;2023-05-07T10:26:45;20.70;99.90
8994;DHT22;4532;50.886;4.700;2023-05-07T10:35:14;20.80;99.90
8994;DHT22;4532;50.886;4.700;2023-05-07T10:37:43;20.80;99.90
8994;DHT22;4532;50.886;4.700;2023-05-07T10:40:12;20.90;99.90
8994;DHT22;4532;50.886;4.700;2023-05-07T10:43:03;20.90;99.90
8994;DHT22;4532;50.886;4.700;2023-05-07T10:45:35;20.90;99.90
8994;DHT22;4532;50.886;4.700;2023-05-07T10:48:15;20.90;99.90
8994;DHT22;4532;50.886;4.700;2023-05-07T10:51:21;20.90;99.90
8994;DHT22;4532;50.886;4.700;2023-05-07T10:56:41;20.90;99.90
8994;DHT22;4532;50.886;4.700;2023-05-07T11:01:57;20.90;99.90
8994;DHT22;4532;50.886;4.700;2023-05-07T11:04:30;21.00;99.90
8994;DHT22;4532;50.886;4.700;2023-05-07T11:09:59;21.00;99.90
8994;DHT22;4532;50.886;4.700;2023-05-07T11:17:34;21.00;99.90
8994;DHT22;4532;50.886;4.700;2023-05-07T11:20:06;21.00;99.90
8994;DHT22;4532;50.886;4.700;2023-05-07T11:25:08;21.00;99.90
8994;DHT22;4532;50.886;4.700;2023-05-07T11:27:35;21.00;99.90
8994;DHT22;4532;50.886;4.700;2023-05-07T11:30:08;21.00;99.90
8994;DHT22;4532;50.886;4.700;2023-05-07T11:32:36;21.00;99.90
8994;DHT22;4532;50.886;4.700;2023-05-07T11:35:03;21.00;99.90
8994;DHT22;4532;50.886;4.700;2023-05-07T11:37:30;21.10;99.90
8994;DHT22;4532;50.886;4.700;2023-05-07T11:40:09;21.10;99.90
8994;DHT22;4532;50.886;4.700;2023-05-07T11:42:43;21.10;99.90
8994;DHT22;4532;50.886;4.700;2023-05-07T11:45:11;21.10;99.90
8994;DHT22;4532;50.886;4.700;2023-05-07T11:47:44;21.10;99.90
8994;DHT22;4532;50.886;4.700;2023-05-07T11:50:13;21.20;99.90
8994;DHT22;4532;50.886;4.700;2023-05-07T11:52:50;21.10;99.90
8994;DHT22;4532;50.886;4.700;2023-05-07T11:55:21;21.20;99.90
8994;DHT22;4532;50.886;4.700;2023-05-07T11:57:51;21.20;99.90
8994;DHT22;4532;50.886;4.700;2023-05-07T12:00:19;21.20;99.90
8994;DHT22;4532;50.886;4.700;2023-05-07T12:02:48;21.20;99.90
8994;DHT22;4532;50.886;4.700;2023-05-07T12:05:17;21.20;99.90
8994;DHT22;4532;50.886;4.700;2023-05-07T12:07:49;21.20;99.90
8994;DHT22;4532;50.886;4.700;2023-05-07T12:10:22;21.20;99.90
8994;DHT22;4532;50.886;4.700;2023-05-07T12:12:49;21.30;99.90
8994;DHT22;4532;50.886;4.700;2023-05-07T12:15:22;21.30;99.90
8994;DHT22;4532;50.886;4.700;2023-05-07T12:17:54;21.40;99.90
8994;DHT22;4532;50.886;4.700;2023-05-07T12:20:21;21.40;99.90
8994;DHT22;4532;50.886;4.700;2023-05-07T12:22:51;21.40;99.90
8994;DHT22;4532;50.886;4.700;2023-05-07T12:25:21;21.50;99.90
8994;DHT22;4532;50.886;4.700;2023-05-07T12:27:54;21.50;99.90
8994;DHT22;4532;50.886;4.700;2023-05-07T12:30:21;21.60;99.90
8994;DHT22;4532;50.886;4.700;2023-05-07T12:32:54;21.60;99.90
8994;DHT22;4532;50.886;4.700;2023-05-07T12:35:29;21.60;99.90
8994;DHT22;4532;50.886;4.700;2023-05-07T12:37:59;21.70;99.90
8994;DHT22;4532;50.886;4.700;2023-05-07T12:40:57;21.70;99.90
8994;DHT22;4532;50.886;4.700;2023-05-07T12:43:28;21.70;99.90
8994;DHT22;4532;50.886;4.700;2023-05-07T12:46:02;21.70;99.90
8994;DHT22;4532;50.886;4.700;2023-05-07T12:48:35;21.70;99.90
8994;DHT22;4532;50.886;4.700;2023-05-07T12:51:02;21.70;99.90
8994;DHT22;4532;50.886;4.700;2023-05-07T12:53:32;21.70;99.90
8994;DHT22;4532;50.886;4.700;2023-05-07T12:56:05;21.70;99.90
8994;DHT22;4532;50.886;4.700;2023-05-07T12:58:40;21.70;99.90
8994;DHT22;4532;50.886;4.700;2023-05-07T13:01:09;21.80;99.90
8994;DHT22;4532;50.886;4.700;2023-05-07T13:03:38;21.80;99.90
8994;DHT22;4532;50.886;4.700;2023-05-07T13:06:11;21.80;99.90
8994;DHT22;4532;50.886;4.700;2023-05-07T13:08:41;21.80;99.90
8994;DHT22;4532;50.886;4.700;2023-05-07T13:11:14;21.80;99.90
8994;DHT22;4532;50.886;4.700;2023-05-07T13:13:43;21.80;99.90
8994;DHT22;4532;50.886;4.700;2023-05-07T13:16:12;21.80;99.90
8994;DHT22;4532;50.886;4.700;2023-05-07T13:18:44;21.80;99.90
8994;DHT22;4532;50.886;4.700;2023-05-07T13:21:14;21.80;99.90
8994;DHT22;4532;50.886;4.700;2023-05-07T13:23:43;21.90;99.90
8994;DHT22;4532;50.886;4.700;2023-05-07T13:26:10;21.90;99.90
8994;DHT22;4532;50.886;4.700;2023-05-07T13:28:55;21.90;99.90
8994;DHT22;4532;50.886;4.700;2023-05-07T13:31:22;22.00;99.90
8994;DHT22;4532;50.886;4.700;2023-05-07T13:33:52;22.00;99.90
8994;DHT22;4532;50.886;4.700;2023-05-07T13:36:23;22.00;99.90
8994;DHT22;4532;50.886;4.700;2023-05-07T13:38:50;22.00;99.90
8994;DHT22;4532;50.886;4.700;2023-05-07T13:41:18;22.00;99.90
8994;DHT22;4532;50.886;4.700;2023-05-07T13:43:50;22.00;99.90
8994;DHT22;4532;50.886;4.700;2023-05-07T13:46:20;22.00;99.90
8994;DHT22;4532;50.886;4.700;2023-05-07T13:48:47;22.00;99.90
8994;DHT22;4532;50.886;4.700;2023-05-07T13:51:16;22.10;99.90
8994;DHT22;4532;50.886;4.700;2023-05-07T13:53:48;22.10;99.90
8994;DHT22;4532;50.886;4.700;2023-05-07T13:56:19;22.10;99.90
8994;DHT22;4532;50.886;4.700;2023-05-07T13:58:49;22.10;99.90
8994;DHT22;4532;50.886;4.700;2023-05-07T14:01:26;22.20;99.90
8994;DHT22;4532;50.886;4.700;2023-05-07T14:03:53;22.20;99.90
8994;DHT22;4532;50.886;4.700;2023-05-07T14:06:22;22.20;99.90
8994;DHT22;4532;50.886;4.700;2023-05-07T14:08:52;22.20;99.90
8994;DHT22;4532;50.886;4.700;2023-05-07T14:11:19;22.20;99.90
8994;DHT22;4532;50.886;4.700;2023-05-07T14:13:49;22.20;99.90
8994;DHT22;4532;50.886;4.700;2023-05-07T14:16:17;22.20;99.90
8994;DHT22;4532;50.886;4.700;2023-05-07T14:18:44;22.20;99.90
8994;DHT22;4532;50.886;4.700;2023-05-07T14:21:13;22.20;99.90
8994;DHT22;4532;50.886;4.700;2023-05-07T14:23:43;22.30;99.90
8994;DHT22;4532;50.886;4.700;2023-05-07T14:26:13;22.30;99.90
8994;DHT22;4532;50.886;4.700;2023-05-07T14:28:43;22.30;99.90
8994;DHT22;4532;50.886;4.700;2023-05-07T14:31:13;22.30;99.90
8994;DHT22;4532;50.886;4.700;2023-05-07T14:33:42;22.30;99.90
8994;DHT22;4532;50.886;4.700;2023-05-07T14:36:10;22.20;99.90
8994;DHT22;4532;50.886;4.700;2023-05-07T14:38:39;22.20;99.90
8994;DHT22;4532;50.886;4.700;2023-05-07T14:41:09;22.30;99.90
8994;DHT22;4532;50.886;4.700;2023-05-07T14:43:36;22.20;99.90
8994;DHT22;4532;50.886;4.700;2023-05-07T14:46:08;22.20;99.90
8994;DHT22;4532;50.886;4.700;2023-05-07T14:48:35;22.20;99.90
8994;DHT22;4532;50.886;4.700;2023-05-07T14:51:05;22.20;99.90
8994;DHT22;4532;50.886;4.700;2023-05-07T14:53:34;22.10;99.90
8994;DHT22;4532;50.886;4.700;2023-05-07T14:56:04;22.10;99.90
8994;DHT22;4532;50.886;4.700;2023-05-07T14:58:39;22.10;99.90
8994;DHT22;4532;50.886;4.700;2023-05-07T15:01:09;22.10;99.90
8994;DHT22;4532;50.886;4.700;2023-05-07T15:03:36;22.10;99.90
8994;DHT22;4532;50.886;4.700;2023-05-07T15:06:04;22.00;99.90
8994;DHT22;4532;50.886;4.700;2023-05-07T15:08:33;22.10;99.90
8994;DHT22;4532;50.886;4.700;2023-05-07T15:11:00;22.00;99.90
8994;DHT22;4532;50.886;4.700;2023-05-07T15:13:28;22.00;99.90
8994;DHT22;4532;50.886;4.700;2023-05-07T15:15:55;22.00;99.90
8994;DHT22;4532;50.886;4.700;2023-05-07T15:18:22;22.10;99.90
8994;DHT22;4532;50.886;4.700;2023-05-07T15:20:49;22.10;99.90
8994;DHT22;4532;50.886;4.700;2023-05-07T15:23:16;22.10;99.90
8994;DHT22;4532;50.886;4.700;2023-05-07T15:25:48;22.10;99.90
8994;DHT22;4532;50.886;4.700;2023-05-07T15:28:18;22.10;99.90
8994;DHT22;4532;50.886;4.700;2023-05-07T15:30:47;22.10;99.90
8994;DHT22;4532;50.886;4.700;2023-05-07T15:33:16;22.10;99.90
8994;DHT22;4532;50.886;4.700;2023-05-07T15:35:44;22.10;99.90
8994;DHT22;4532;50.886;4.700;2023-05-07T15:38:13;22.10;99.90
8994;DHT22;4532;50.886;4.700;2023-05-07T15:40:40;22.10;99.90
8994;DHT22;4532;50.886;4.700;2023-05-07T15:43:13;22.10;99.90
8994;DHT22;4532;50.886;4.700;2023-05-07T15:45:43;22.00;99.90
8994;DHT22;4532;50.886;4.700;2023-05-07T15:48:11;22.00;99.90
8994;DHT22;4532;50.886;4.700;2023-05-07T15:50:40;22.00;99.90
8994;DHT22;4532;50.886;4.700;2023-05-07T15:53:10;22.00;99.90
8994;DHT22;4532;50.886;4.700;2023-05-07T15:55:42;22.00;99.90
8994;DHT22;4532;50.886;4.700;2023-05-07T15:58:12;22.00;99.90
8994;DHT22;4532;50.886;4.700;2023-05-07T16:00:39;22.00;99.90
8994;DHT22;4532;50.886;4.700;2023-05-07T16:03:09;22.00;99.90
8994;DHT22;4532;50.886;4.700;2023-05-07T16:05:37;22.00;99.90
8994;DHT22;4532;50.886;4.700;2023-05-07T16:08:04;22.00;99.90
8994;DHT22;4532;50.886;4.700;2023-05-07T16:10:31;22.00;99.90
8994;DHT22;4532;50.886;4.700;2023-05-07T16:13:01;22.00;99.90
8994;DHT22;4532;50.886;4.700;2023-05-07T16:15:32;22.00;99.90
8994;DHT22;4532;50.886;4.700;2023-05-07T16:18:02;22.00;99.90
8994;DHT22;4532;50.886;4.700;2023-05-07T16:20:32;21.90;99.90
8994;DHT22;4532;50.886;4.700;2023-05-07T16:23:02;21.90;99.90
8994;DHT22;4532;50.886;4.700;2023-05-07T16:25:32;21.90;99.90
8994;DHT22;4532;50.886;4.700;2023-05-07T16:28:06;21.90;99.90
8994;DHT22;4532;50.886;4.700;2023-05-07T16:30:33;21.90;99.90
8994;DHT22;4532;50.886;4.700;2023-05-07T16:33:01;21.90;99.90
8994;DHT22;4532;50.886;4.700;2023-05-07T16:35:31;21.90;99.90
8994;DHT22;4532;50.886;4.700;2023-05-07T16:38:00;21.90;99.90
8994;DHT22;4532;50.886;4.700;2023-05-07T16:40:39;21.90;99.90